sensor_id;sensor_type;location;lat;lon;timestamp;P1;durP1;ratioP1;P2;durP2;ratioP2
6376;SDS011;3221;48.858;10.128;2023-08-06T00:00:56;2.90;;;2.63;;
6376;SDS011;3221;48.858;10.128;2023-08-06T00:03:23;3.27;;;2.43;;
6376;SDS011;3221;48.858;10.128;2023-08-06T00:05:50;2.60;;;2.40;;
6376;SDS011;3221;48.858;10.128;2023-08-06T00:08:17;2.60;;;2.40;;
6376;SDS011;3221;48.858;10.128;2023-08-06T00:10:44;2.77;;;2.50;;
6376;SDS011;3221;48.858;10.128;2023-08-06T00:13:14;2.67;;;2.47;;
6376;SDS011;3221;48.858;10.128;2023-08-06T00:15:41;2.57;;;2.40;;
6376;SDS011;3221;48.858;10.128;2023-08-06T00:18:08;4.60;;;2.47;;
6376;SDS011;3221;48.858;10.128;2023-08-06T00:20:34;3.17;;;2.87;;
6376;SDS011;3221;48.858;10.128;2023-08-06T00:23:01;4.03;;;2.50;;
6376;SDS011;3221;48.858;10.128;2023-08-06T00:25:28;3.10;;;2.80;;
6376;SDS011;3221;48.858;10.128;2023-08-06T00:27:55;3.83;;;2.70;;
6376;SDS011;3221;48.858;10.128;2023-08-06T00:30:22;2.83;;;2.63;;
6376;SDS011;3221;48.858;10.128;2023-08-06T00:32:49;3.50;;;3.10;;
6376;SDS011;3221;48.858;10.128;2023-08-06T00:35:16;2.77;;;2.50;;
6376;SDS011;3221;48.858;10.128;2023-08-06T00:37:43;3.30;;;2.60;;
6376;SDS011;3221;48.858;10.128;2023-08-06T00:40:10;3.20;;;2.90;;
6376;SDS011;3221;48.858;10.128;2023-08-06T00:42:37;3.00;;;2.80;;
6376;SDS011;3221;48.858;10.128;2023-08-06T00:45:04;4.23;;;2.90;;
6376;SDS011;3221;48.858;10.128;2023-08-06T00:47:32;4.17;;;3.00;;
6376;SDS011;3221;48.858;10.128;2023-08-06T00:49:59;3.37;;;3.00;;
6376;SDS011;3221;48.858;10.128;2023-08-06T00:52:26;3.40;;;3.10;;
6376;SDS011;3221;48.858;10.128;2023-08-06T00:54:53;4.73;;;2.77;;
6376;SDS011;3221;48.858;10.128;2023-08-06T00:57:21;5.17;;;2.90;;
6376;SDS011;3221;48.858;10.128;2023-08-06T00:59:51;3.13;;;2.77;;
6376;SDS011;3221;48.858;10.128;2023-08-06T01:02:20;4.50;;;3.17;;
6376;SDS011;3221;48.858;10.128;2023-08-06T01:04:47;3.20;;;2.90;;
6376;SDS011;3221;48.858;10.128;2023-08-06T01:12:51;4.27;;;3.00;;
6376;SDS011;3221;48.858;10.128;2023-08-06T01:15:32;5.53;;;3.30;;
6376;SDS011;3221;48.858;10.128;2023-08-06T01:18:05;3.57;;;3.27;;
6376;SDS011;3221;48.858;10.128;2023-08-06T01:20:33;4.77;;;3.50;;
6376;SDS011;3221;48.858;10.128;2023-08-06T01:23:00;4.70;;;3.27;;
6376;SDS011;3221;48.858;10.128;2023-08-06T01:25:29;3.73;;;3.10;;
6376;SDS011;3221;48.858;10.128;2023-08-06T01:28:21;5.10;;;3.47;;
6376;SDS011;3221;48.858;10.128;2023-08-06T01:30:54;3.60;;;3.30;;
6376;SDS011;3221;48.858;10.128;2023-08-06T01:33:25;5.20;;;3.57;;
6376;SDS011;3221;48.858;10.128;2023-08-06T01:35:55;4.37;;;3.93;;
6376;SDS011;3221;48.858;10.128;2023-08-06T01:38:24;4.10;;;3.73;;
6376;SDS011;3221;48.858;10.128;2023-08-06T01:40:51;3.97;;;3.63;;
6376;SDS011;3221;48.858;10.128;2023-08-06T01:43:18;4.40;;;4.00;;
6376;SDS011;3221;48.858;10.128;2023-08-06T01:45:46;6.70;;;4.20;;
6376;SDS011;3221;48.858;10.128;2023-08-06T01:48:13;4.63;;;4.17;;
6376;SDS011;3221;48.858;10.128;2023-08-06T01:50:39;4.20;;;3.90;;
6376;SDS011;3221;48.858;10.128;2023-08-06T01:53:07;5.17;;;3.80;;
6376;SDS011;3221;48.858;10.128;2023-08-06T01:55:33;3.97;;;3.57;;
6376;SDS011;3221;48.858;10.128;2023-08-06T01:58:00;6.43;;;4.00;;
6376;SDS011;3221;48.858;10.128;2023-08-06T02:00:27;3.90;;;3.60;;
6376;SDS011;3221;48.858;10.128;2023-08-06T02:02:55;4.50;;;4.10;;
6376;SDS011;3221;48.858;10.128;2023-08-06T02:05:22;4.30;;;3.90;;
6376;SDS011;3221;48.858;10.128;2023-08-06T02:07:49;5.27;;;4.03;;
6376;SDS011;3221;48.858;10.128;2023-08-06T02:10:16;3.63;;;3.33;;
6376;SDS011;3221;48.858;10.128;2023-08-06T02:12:43;4.40;;;3.10;;
6376;SDS011;3221;48.858;10.128;2023-08-06T02:15:10;4.47;;;3.60;;
6376;SDS011;3221;48.858;10.128;2023-08-06T02:17:37;4.80;;;3.80;;
6376;SDS011;3221;48.858;10.128;2023-08-06T02:20:04;4.17;;;3.77;;
6376;SDS011;3221;48.858;10.128;2023-08-06T02:22:32;4.60;;;4.07;;
6376;SDS011;3221;48.858;10.128;2023-08-06T02:24:59;4.00;;;3.63;;
6376;SDS011;3221;48.858;10.128;2023-08-06T02:27:26;4.20;;;3.80;;
6376;SDS011;3221;48.858;10.128;2023-08-06T02:29:53;4.23;;;3.53;;
6376;SDS011;3221;48.858;10.128;2023-08-06T02:32:20;4.17;;;3.83;;
6376;SDS011;3221;48.858;10.128;2023-08-06T02:34:47;5.23;;;3.87;;
6376;SDS011;3221;48.858;10.128;2023-08-06T02:37:14;5.33;;;4.43;;
6376;SDS011;3221;48.858;10.128;2023-08-06T02:39:41;7.20;;;4.10;;
6376;SDS011;3221;48.858;10.128;2023-08-06T02:42:10;7.17;;;4.10;;
6376;SDS011;3221;48.858;10.128;2023-08-06T02:44:38;4.57;;;3.90;;
6376;SDS011;3221;48.858;10.128;2023-08-06T02:47:05;4.10;;;3.60;;
6376;SDS011;3221;48.858;10.128;2023-08-06T02:49:32;4.50;;;3.70;;
6376;SDS011;3221;48.858;10.128;2023-08-06T02:51:59;4.87;;;4.37;;
6376;SDS011;3221;48.858;10.128;2023-08-06T02:54:26;5.37;;;4.50;;
6376;SDS011;3221;48.858;10.128;2023-08-06T02:56:54;4.97;;;4.47;;
6376;SDS011;3221;48.858;10.128;2023-08-06T02:59:26;5.90;;;4.03;;
6376;SDS011;3221;48.858;10.128;2023-08-06T03:02:11;4.67;;;4.07;;
6376;SDS011;3221;48.858;10.128;2023-08-06T03:05:05;3.70;;;3.40;;
6376;SDS011;3221;48.858;10.128;2023-08-06T03:07:37;3.40;;;3.10;;
6376;SDS011;3221;48.858;10.128;2023-08-06T03:10:11;4.13;;;3.40;;
6376;SDS011;3221;48.858;10.128;2023-08-06T03:12:40;4.27;;;3.77;;
6376;SDS011;3221;48.858;10.128;2023-08-06T03:15:07;6.17;;;3.70;;
6376;SDS011;3221;48.858;10.128;2023-08-06T03:17:34;5.33;;;3.67;;
6376;SDS011;3221;48.858;10.128;2023-08-06T03:20:03;3.60;;;3.30;;
6376;SDS011;3221;48.858;10.128;2023-08-06T03:22:32;5.03;;;4.10;;
6376;SDS011;3221;48.858;10.128;2023-08-06T03:24:59;4.97;;;3.80;;
6376;SDS011;3221;48.858;10.128;2023-08-06T03:27:27;3.97;;;3.67;;
6376;SDS011;3221;48.858;10.128;2023-08-06T03:29:54;6.13;;;3.83;;
6376;SDS011;3221;48.858;10.128;2023-08-06T03:32:24;6.20;;;3.40;;
6376;SDS011;3221;48.858;10.128;2023-08-06T03:34:52;6.63;;;3.60;;
6376;SDS011;3221;48.858;10.128;2023-08-06T03:37:21;5.83;;;3.60;;
6376;SDS011;3221;48.858;10.128;2023-08-06T03:39:49;7.70;;;3.77;;
6376;SDS011;3221;48.858;10.128;2023-08-06T03:42:17;13.43;;;4.30;;
6376;SDS011;3221;48.858;10.128;2023-08-06T03:44:44;6.50;;;3.20;;
6376;SDS011;3221;48.858;10.128;2023-08-06T03:47:11;6.43;;;3.73;;
6376;SDS011;3221;48.858;10.128;2023-08-06T03:49:38;4.83;;;3.40;;
6376;SDS011;3221;48.858;10.128;2023-08-06T03:52:06;4.43;;;3.33;;
6376;SDS011;3221;48.858;10.128;2023-08-06T03:54:33;4.80;;;3.93;;
6376;SDS011;3221;48.858;10.128;2023-08-06T03:57:01;9.67;;;4.37;;
6376;SDS011;3221;48.858;10.128;2023-08-06T03:59:28;13.13;;;4.10;;
6376;SDS011;3221;48.858;10.128;2023-08-06T04:01:56;6.37;;;4.07;;
6376;SDS011;3221;48.858;10.128;2023-08-06T04:04:23;6.53;;;4.30;;
6376;SDS011;3221;48.858;10.128;2023-08-06T04:06:49;7.17;;;4.30;;
6376;SDS011;3221;48.858;10.128;2023-08-06T04:09:16;13.53;;;5.03;;
6376;SDS011;3221;48.858;10.128;2023-08-06T04:11:43;7.60;;;5.03;;
6376;SDS011;3221;48.858;10.128;2023-08-06T04:14:10;5.40;;;3.43;;
6376;SDS011;3221;48.858;10.128;2023-08-06T04:16:37;4.10;;;3.47;;
6376;SDS011;3221;48.858;10.128;2023-08-06T04:19:04;3.70;;;3.30;;
6376;SDS011;3221;48.858;10.128;2023-08-06T04:21:32;4.67;;;3.20;;
6376;SDS011;3221;48.858;10.128;2023-08-06T04:23:59;4.13;;;3.40;;
6376;SDS011;3221;48.858;10.128;2023-08-06T04:26:26;3.80;;;3.40;;
6376;SDS011;3221;48.858;10.128;2023-08-06T04:28:53;6.27;;;3.57;;
6376;SDS011;3221;48.858;10.128;2023-08-06T04:31:21;3.60;;;3.30;;
6376;SDS011;3221;48.858;10.128;2023-08-06T04:33:48;6.13;;;3.40;;
6376;SDS011;3221;48.858;10.128;2023-08-06T04:36:16;3.37;;;3.07;;
6376;SDS011;3221;48.858;10.128;2023-08-06T04:38:43;6.17;;;4.00;;
6376;SDS011;3221;48.858;10.128;2023-08-06T04:41:14;5.53;;;3.73;;
6376;SDS011;3221;48.858;10.128;2023-08-06T04:43:41;4.00;;;3.47;;
6376;SDS011;3221;48.858;10.128;2023-08-06T04:46:09;5.23;;;3.23;;
6376;SDS011;3221;48.858;10.128;2023-08-06T04:48:35;6.40;;;4.20;;
6376;SDS011;3221;48.858;10.128;2023-08-06T04:51:02;3.20;;;2.90;;
6376;SDS011;3221;48.858;10.128;2023-08-06T04:53:29;4.00;;;2.83;;
6376;SDS011;3221;48.858;10.128;2023-08-06T04:55:56;6.10;;;3.30;;
6376;SDS011;3221;48.858;10.128;2023-08-06T04:58:23;3.23;;;2.93;;
6376;SDS011;3221;48.858;10.128;2023-08-06T05:00:50;3.20;;;2.90;;
6376;SDS011;3221;48.858;10.128;2023-08-06T05:03:17;3.57;;;3.10;;
6376;SDS011;3221;48.858;10.128;2023-08-06T05:05:45;3.53;;;3.07;;
6376;SDS011;3221;48.858;10.128;2023-08-06T05:08:15;5.23;;;2.73;;
6376;SDS011;3221;48.858;10.128;2023-08-06T05:10:45;3.60;;;2.87;;
6376;SDS011;3221;48.858;10.128;2023-08-06T05:13:12;3.50;;;2.80;;
6376;SDS011;3221;48.858;10.128;2023-08-06T05:15:39;3.37;;;2.90;;
6376;SDS011;3221;48.858;10.128;2023-08-06T05:18:09;3.67;;;3.00;;
6376;SDS011;3221;48.858;10.128;2023-08-06T05:20:36;4.10;;;2.80;;
6376;SDS011;3221;48.858;10.128;2023-08-06T05:23:04;2.90;;;2.70;;
6376;SDS011;3221;48.858;10.128;2023-08-06T05:25:31;5.77;;;3.00;;
6376;SDS011;3221;48.858;10.128;2023-08-06T05:27:58;4.63;;;2.60;;
6376;SDS011;3221;48.858;10.128;2023-08-06T05:30:26;4.83;;;2.50;;
6376;SDS011;3221;48.858;10.128;2023-08-06T05:32:53;5.40;;;2.77;;
6376;SDS011;3221;48.858;10.128;2023-08-06T05:35:20;2.87;;;2.60;;
6376;SDS011;3221;48.858;10.128;2023-08-06T05:37:47;4.43;;;2.40;;
6376;SDS011;3221;48.858;10.128;2023-08-06T05:40:14;3.13;;;2.83;;
6376;SDS011;3221;48.858;10.128;2023-08-06T05:42:41;3.17;;;2.63;;
6376;SDS011;3221;48.858;10.128;2023-08-06T05:45:08;2.87;;;2.63;;
6376;SDS011;3221;48.858;10.128;2023-08-06T05:47:36;4.83;;;2.93;;
6376;SDS011;3221;48.858;10.128;2023-08-06T05:50:03;3.17;;;2.87;;
6376;SDS011;3221;48.858;10.128;2023-08-06T05:52:30;3.20;;;2.90;;
6376;SDS011;3221;48.858;10.128;2023-08-06T05:54:57;6.03;;;3.20;;
6376;SDS011;3221;48.858;10.128;2023-08-06T05:57:24;3.20;;;2.83;;
6376;SDS011;3221;48.858;10.128;2023-08-06T05:59:51;5.07;;;2.67;;
6376;SDS011;3221;48.858;10.128;2023-08-06T06:02:18;4.20;;;3.00;;
6376;SDS011;3221;48.858;10.128;2023-08-06T06:04:45;3.10;;;2.43;;
6376;SDS011;3221;48.858;10.128;2023-08-06T06:07:12;3.30;;;2.90;;
6376;SDS011;3221;48.858;10.128;2023-08-06T06:09:40;2.90;;;2.67;;
6376;SDS011;3221;48.858;10.128;2023-08-06T06:12:07;4.17;;;2.80;;
6376;SDS011;3221;48.858;10.128;2023-08-06T06:14:34;2.60;;;2.40;;
6376;SDS011;3221;48.858;10.128;2023-08-06T06:17:01;3.63;;;2.30;;
6376;SDS011;3221;48.858;10.128;2023-08-06T06:19:28;3.60;;;2.10;;
6376;SDS011;3221;48.858;10.128;2023-08-06T06:21:55;2.30;;;1.83;;
6376;SDS011;3221;48.858;10.128;2023-08-06T06:24:24;3.17;;;1.90;;
6376;SDS011;3221;48.858;10.128;2023-08-06T06:26:51;2.80;;;1.90;;
6376;SDS011;3221;48.858;10.128;2023-08-06T06:29:18;3.80;;;2.00;;
6376;SDS011;3221;48.858;10.128;2023-08-06T06:31:45;2.23;;;1.90;;
6376;SDS011;3221;48.858;10.128;2023-08-06T06:34:12;2.43;;;1.80;;
6376;SDS011;3221;48.858;10.128;2023-08-06T06:36:39;4.83;;;1.90;;
6376;SDS011;3221;48.858;10.128;2023-08-06T06:39:06;3.60;;;1.80;;
6376;SDS011;3221;48.858;10.128;2023-08-06T06:41:34;2.80;;;2.20;;
6376;SDS011;3221;48.858;10.128;2023-08-06T06:44:10;3.07;;;1.83;;
6376;SDS011;3221;48.858;10.128;2023-08-06T06:46:37;2.63;;;1.50;;
6376;SDS011;3221;48.858;10.128;2023-08-06T06:49:03;2.97;;;1.60;;
6376;SDS011;3221;48.858;10.128;2023-08-06T06:51:30;3.87;;;1.90;;
6376;SDS011;3221;48.858;10.128;2023-08-06T06:53:58;2.57;;;1.53;;
6376;SDS011;3221;48.858;10.128;2023-08-06T06:56:25;3.23;;;1.60;;
6376;SDS011;3221;48.858;10.128;2023-08-06T06:58:52;4.33;;;1.80;;
6376;SDS011;3221;48.858;10.128;2023-08-06T07:01:19;3.00;;;1.70;;
6376;SDS011;3221;48.858;10.128;2023-08-06T07:03:46;1.93;;;1.40;;
6376;SDS011;3221;48.858;10.128;2023-08-06T07:06:13;2.53;;;1.77;;
6376;SDS011;3221;48.858;10.128;2023-08-06T07:08:41;2.90;;;1.50;;
6376;SDS011;3221;48.858;10.128;2023-08-06T07:11:08;2.87;;;1.67;;
6376;SDS011;3221;48.858;10.128;2023-08-06T07:13:35;2.93;;;1.57;;
6376;SDS011;3221;48.858;10.128;2023-08-06T07:16:03;3.77;;;1.60;;
6376;SDS011;3221;48.858;10.128;2023-08-06T07:18:30;2.13;;;1.53;;
6376;SDS011;3221;48.858;10.128;2023-08-06T07:20:57;2.50;;;1.50;;
6376;SDS011;3221;48.858;10.128;2023-08-06T07:23:25;2.60;;;1.40;;
6376;SDS011;3221;48.858;10.128;2023-08-06T07:25:52;2.13;;;1.40;;
6376;SDS011;3221;48.858;10.128;2023-08-06T07:28:19;2.70;;;1.50;;
6376;SDS011;3221;48.858;10.128;2023-08-06T07:30:46;2.00;;;1.20;;
6376;SDS011;3221;48.858;10.128;2023-08-06T07:33:14;1.73;;;1.10;;
6376;SDS011;3221;48.858;10.128;2023-08-06T07:35:41;2.70;;;1.37;;
6376;SDS011;3221;48.858;10.128;2023-08-06T07:38:09;1.27;;;1.10;;
6376;SDS011;3221;48.858;10.128;2023-08-06T07:40:36;1.83;;;1.30;;
6376;SDS011;3221;48.858;10.128;2023-08-06T07:43:03;1.13;;;1.00;;
6376;SDS011;3221;48.858;10.128;2023-08-06T07:45:34;1.43;;;1.27;;
6376;SDS011;3221;48.858;10.128;2023-08-06T07:48:02;1.80;;;1.40;;
6376;SDS011;3221;48.858;10.128;2023-08-06T07:50:30;1.53;;;1.23;;
6376;SDS011;3221;48.858;10.128;2023-08-06T07:52:57;2.30;;;1.23;;
6376;SDS011;3221;48.858;10.128;2023-08-06T07:55:25;1.53;;;1.30;;
6376;SDS011;3221;48.858;10.128;2023-08-06T07:57:52;1.33;;;1.20;;
6376;SDS011;3221;48.858;10.128;2023-08-06T08:00:19;2.67;;;1.23;;
6376;SDS011;3221;48.858;10.128;2023-08-06T08:02:46;3.23;;;1.40;;
6376;SDS011;3221;48.858;10.128;2023-08-06T08:05:13;1.67;;;1.20;;
6376;SDS011;3221;48.858;10.128;2023-08-06T08:07:40;1.47;;;1.10;;
6376;SDS011;3221;48.858;10.128;2023-08-06T08:10:07;1.90;;;1.27;;
6376;SDS011;3221;48.858;10.128;2023-08-06T08:12:35;1.60;;;1.00;;
6376;SDS011;3221;48.858;10.128;2023-08-06T08:15:02;1.70;;;0.93;;
6376;SDS011;3221;48.858;10.128;2023-08-06T08:17:29;1.40;;;1.07;;
6376;SDS011;3221;48.858;10.128;2023-08-06T08:19:56;1.77;;;1.33;;
6376;SDS011;3221;48.858;10.128;2023-08-06T08:22:23;8.70;;;5.23;;
6376;SDS011;3221;48.858;10.128;2023-08-06T08:24:50;5.47;;;2.70;;
6376;SDS011;3221;48.858;10.128;2023-08-06T08:27:17;1.83;;;1.57;;
6376;SDS011;3221;48.858;10.128;2023-08-06T08:29:44;1.17;;;1.10;;
6376;SDS011;3221;48.858;10.128;2023-08-06T08:32:11;2.70;;;1.90;;
6376;SDS011;3221;48.858;10.128;2023-08-06T08:34:38;1.87;;;1.30;;
6376;SDS011;3221;48.858;10.128;2023-08-06T08:37:05;1.70;;;1.13;;
6376;SDS011;3221;48.858;10.128;2023-08-06T08:39:32;1.07;;;0.80;;
6376;SDS011;3221;48.858;10.128;2023-08-06T08:41:59;1.00;;;0.90;;
6376;SDS011;3221;48.858;10.128;2023-08-06T08:44:27;0.70;;;0.70;;
6376;SDS011;3221;48.858;10.128;2023-08-06T08:46:55;0.77;;;0.77;;
6376;SDS011;3221;48.858;10.128;2023-08-06T08:49:23;1.63;;;0.83;;
6376;SDS011;3221;48.858;10.128;2023-08-06T08:51:53;1.10;;;0.80;;
6376;SDS011;3221;48.858;10.128;2023-08-06T08:54:21;1.70;;;0.87;;
6376;SDS011;3221;48.858;10.128;2023-08-06T08:56:50;0.83;;;0.77;;
6376;SDS011;3221;48.858;10.128;2023-08-06T08:59:17;0.83;;;0.83;;
6376;SDS011;3221;48.858;10.128;2023-08-06T09:01:44;1.00;;;0.90;;
6376;SDS011;3221;48.858;10.128;2023-08-06T09:04:17;0.90;;;0.90;;
6376;SDS011;3221;48.858;10.128;2023-08-06T09:06:46;2.77;;;0.80;;
6376;SDS011;3221;48.858;10.128;2023-08-06T09:09:36;0.80;;;0.80;;
6376;SDS011;3221;48.858;10.128;2023-08-06T09:12:11;0.67;;;0.67;;
6376;SDS011;3221;48.858;10.128;2023-08-06T09:14:40;0.80;;;0.80;;
6376;SDS011;3221;48.858;10.128;2023-08-06T09:17:08;1.07;;;0.83;;
6376;SDS011;3221;48.858;10.128;2023-08-06T09:19:42;1.20;;;1.00;;
6376;SDS011;3221;48.858;10.128;2023-08-06T09:22:12;1.17;;;0.90;;
6376;SDS011;3221;48.858;10.128;2023-08-06T09:24:43;1.00;;;1.00;;
6376;SDS011;3221;48.858;10.128;2023-08-06T09:27:11;0.83;;;0.83;;
6376;SDS011;3221;48.858;10.128;2023-08-06T09:29:40;1.27;;;0.80;;
6376;SDS011;3221;48.858;10.128;2023-08-06T09:32:09;1.10;;;0.73;;
6376;SDS011;3221;48.858;10.128;2023-08-06T09:34:38;1.20;;;0.90;;
6376;SDS011;3221;48.858;10.128;2023-08-06T09:37:08;1.27;;;0.80;;
6376;SDS011;3221;48.858;10.128;2023-08-06T09:39:39;1.63;;;0.90;;
6376;SDS011;3221;48.858;10.128;2023-08-06T09:42:09;1.10;;;1.00;;
6376;SDS011;3221;48.858;10.128;2023-08-06T09:44:36;1.30;;;1.20;;
6376;SDS011;3221;48.858;10.128;2023-08-06T09:47:06;0.87;;;0.87;;
6376;SDS011;3221;48.858;10.128;2023-08-06T09:52:00;1.07;;;0.57;;
6376;SDS011;3221;48.858;10.128;2023-08-06T09:54:27;0.90;;;0.90;;
6376;SDS011;3221;48.858;10.128;2023-08-06T09:56:56;0.80;;;0.80;;
6376;SDS011;3221;48.858;10.128;2023-08-06T09:59:23;0.70;;;0.70;;
6376;SDS011;3221;48.858;10.128;2023-08-06T10:01:51;0.60;;;0.50;;
6376;SDS011;3221;48.858;10.128;2023-08-06T10:04:22;1.40;;;0.70;;
6376;SDS011;3221;48.858;10.128;2023-08-06T10:06:56;0.50;;;0.50;;
6376;SDS011;3221;48.858;10.128;2023-08-06T10:09:24;0.93;;;0.70;;
6376;SDS011;3221;48.858;10.128;2023-08-06T10:11:51;1.00;;;0.90;;
6376;SDS011;3221;48.858;10.128;2023-08-06T10:14:23;1.10;;;1.00;;
6376;SDS011;3221;48.858;10.128;2023-08-06T10:16:53;0.70;;;0.70;;
6376;SDS011;3221;48.858;10.128;2023-08-06T10:19:22;0.60;;;0.60;;
6376;SDS011;3221;48.858;10.128;2023-08-06T10:24:50;0.40;;;0.40;;
6376;SDS011;3221;48.858;10.128;2023-08-06T10:29:54;0.60;;;0.60;;
6376;SDS011;3221;48.858;10.128;2023-08-06T10:32:45;0.57;;;0.57;;
6376;SDS011;3221;48.858;10.128;2023-08-06T10:38:09;0.50;;;0.50;;
6376;SDS011;3221;48.858;10.128;2023-08-06T10:40:41;0.80;;;0.60;;
6376;SDS011;3221;48.858;10.128;2023-08-06T10:43:24;0.60;;;0.60;;
6376;SDS011;3221;48.858;10.128;2023-08-06T10:45:57;0.80;;;0.80;;
6376;SDS011;3221;48.858;10.128;2023-08-06T10:48:33;1.00;;;0.90;;
6376;SDS011;3221;48.858;10.128;2023-08-06T10:51:11;0.97;;;0.80;;
6376;SDS011;3221;48.858;10.128;2023-08-06T10:53:49;0.93;;;0.90;;
6376;SDS011;3221;48.858;10.128;2023-08-06T10:56:18;1.17;;;1.07;;
6376;SDS011;3221;48.858;10.128;2023-08-06T10:58:46;2.00;;;1.20;;
6376;SDS011;3221;48.858;10.128;2023-08-06T11:01:14;1.87;;;1.10;;
6376;SDS011;3221;48.858;10.128;2023-08-06T11:03:45;1.10;;;1.00;;
6376;SDS011;3221;48.858;10.128;2023-08-06T11:06:19;1.00;;;0.90;;
6376;SDS011;3221;48.858;10.128;2023-08-06T11:08:47;0.97;;;0.97;;
6376;SDS011;3221;48.858;10.128;2023-08-06T11:11:16;0.50;;;0.50;;
6376;SDS011;3221;48.858;10.128;2023-08-06T11:13:44;0.80;;;0.60;;
6376;SDS011;3221;48.858;10.128;2023-08-06T11:16:13;0.50;;;0.50;;
6376;SDS011;3221;48.858;10.128;2023-08-06T11:18:41;2.37;;;0.70;;
6376;SDS011;3221;48.858;10.128;2023-08-06T11:21:08;1.00;;;0.70;;
6376;SDS011;3221;48.858;10.128;2023-08-06T11:23:35;1.53;;;0.80;;
6376;SDS011;3221;48.858;10.128;2023-08-06T11:26:03;2.73;;;1.20;;
6376;SDS011;3221;48.858;10.128;2023-08-06T11:28:30;0.80;;;0.80;;
6376;SDS011;3221;48.858;10.128;2023-08-06T11:30:57;0.87;;;0.63;;
6376;SDS011;3221;48.858;10.128;2023-08-06T11:33:27;0.90;;;0.90;;
6376;SDS011;3221;48.858;10.128;2023-08-06T11:35:55;0.77;;;0.77;;
6376;SDS011;3221;48.858;10.128;2023-08-06T11:38:29;0.60;;;0.60;;
6376;SDS011;3221;48.858;10.128;2023-08-06T11:40:56;0.50;;;0.50;;
6376;SDS011;3221;48.858;10.128;2023-08-06T11:43:23;0.50;;;0.50;;
6376;SDS011;3221;48.858;10.128;2023-08-06T11:45:50;0.50;;;0.50;;
6376;SDS011;3221;48.858;10.128;2023-08-06T11:48:20;0.83;;;0.83;;
6376;SDS011;3221;48.858;10.128;2023-08-06T11:50:47;0.90;;;0.90;;
6376;SDS011;3221;48.858;10.128;2023-08-06T11:53:14;1.27;;;0.70;;
6376;SDS011;3221;48.858;10.128;2023-08-06T11:55:41;1.60;;;0.93;;
6376;SDS011;3221;48.858;10.128;2023-08-06T11:58:10;0.80;;;0.80;;
6376;SDS011;3221;48.858;10.128;2023-08-06T12:00:38;2.47;;;0.80;;
6376;SDS011;3221;48.858;10.128;2023-08-06T12:03:05;1.33;;;0.70;;
6376;SDS011;3221;48.858;10.128;2023-08-06T12:05:32;0.70;;;0.70;;
6376;SDS011;3221;48.858;10.128;2023-08-06T12:08:00;0.70;;;0.70;;
6376;SDS011;3221;48.858;10.128;2023-08-06T12:10:29;0.90;;;0.90;;
6376;SDS011;3221;48.858;10.128;2023-08-06T12:12:57;1.00;;;0.90;;
6376;SDS011;3221;48.858;10.128;2023-08-06T12:15:24;1.47;;;0.77;;
6376;SDS011;3221;48.858;10.128;2023-08-06T12:17:51;0.70;;;0.70;;
6376;SDS011;3221;48.858;10.128;2023-08-06T12:20:18;1.03;;;0.80;;
6376;SDS011;3221;48.858;10.128;2023-08-06T12:22:45;2.10;;;0.90;;
6376;SDS011;3221;48.858;10.128;2023-08-06T12:25:12;0.90;;;0.90;;
6376;SDS011;3221;48.858;10.128;2023-08-06T12:27:43;0.80;;;0.80;;
6376;SDS011;3221;48.858;10.128;2023-08-06T12:30:12;1.33;;;1.10;;
6376;SDS011;3221;48.858;10.128;2023-08-06T12:32:39;1.00;;;1.00;;
6376;SDS011;3221;48.858;10.128;2023-08-06T12:35:07;2.33;;;1.40;;
6376;SDS011;3221;48.858;10.128;2023-08-06T12:37:35;1.50;;;1.40;;
6376;SDS011;3221;48.858;10.128;2023-08-06T12:40:03;1.40;;;1.30;;
6376;SDS011;3221;48.858;10.128;2023-08-06T12:42:50;1.10;;;1.10;;
6376;SDS011;3221;48.858;10.128;2023-08-06T12:45:17;0.97;;;0.90;;
6376;SDS011;3221;48.858;10.128;2023-08-06T12:47:48;1.20;;;1.10;;
6376;SDS011;3221;48.858;10.128;2023-08-06T12:50:16;1.50;;;1.40;;
6376;SDS011;3221;48.858;10.128;2023-08-06T12:52:44;1.13;;;1.07;;
6376;SDS011;3221;48.858;10.128;2023-08-06T12:55:11;1.47;;;1.37;;
6376;SDS011;3221;48.858;10.128;2023-08-06T12:57:38;1.10;;;1.00;;
6376;SDS011;3221;48.858;10.128;2023-08-06T13:00:24;2.03;;;1.40;;
6376;SDS011;3221;48.858;10.128;2023-08-06T13:02:54;2.00;;;1.53;;
6376;SDS011;3221;48.858;10.128;2023-08-06T13:05:21;2.23;;;1.80;;
6376;SDS011;3221;48.858;10.128;2023-08-06T13:07:48;1.80;;;1.63;;
6376;SDS011;3221;48.858;10.128;2023-08-06T13:10:15;2.47;;;1.30;;
6376;SDS011;3221;48.858;10.128;2023-08-06T13:12:42;1.73;;;1.63;;
6376;SDS011;3221;48.858;10.128;2023-08-06T13:15:10;2.10;;;1.70;;
6376;SDS011;3221;48.858;10.128;2023-08-06T13:17:37;1.80;;;1.70;;
6376;SDS011;3221;48.858;10.128;2023-08-06T13:20:04;2.80;;;1.60;;
6376;SDS011;3221;48.858;10.128;2023-08-06T13:22:32;2.30;;;1.90;;
6376;SDS011;3221;48.858;10.128;2023-08-06T13:24:59;2.17;;;1.97;;
6376;SDS011;3221;48.858;10.128;2023-08-06T13:27:26;2.20;;;2.00;;
6376;SDS011;3221;48.858;10.128;2023-08-06T13:29:53;1.73;;;1.63;;
6376;SDS011;3221;48.858;10.128;2023-08-06T13:32:20;1.93;;;1.80;;
6376;SDS011;3221;48.858;10.128;2023-08-06T13:34:47;1.70;;;1.60;;
6376;SDS011;3221;48.858;10.128;2023-08-06T13:37:14;2.27;;;2.00;;
6376;SDS011;3221;48.858;10.128;2023-08-06T13:39:41;3.10;;;2.20;;
6376;SDS011;3221;48.858;10.128;2023-08-06T13:42:08;3.00;;;2.13;;
6376;SDS011;3221;48.858;10.128;2023-08-06T13:44:35;2.43;;;2.20;;
6376;SDS011;3221;48.858;10.128;2023-08-06T13:47:02;2.63;;;2.20;;
6376;SDS011;3221;48.858;10.128;2023-08-06T13:49:29;2.57;;;2.03;;
6376;SDS011;3221;48.858;10.128;2023-08-06T13:51:56;2.93;;;2.20;;
6376;SDS011;3221;48.858;10.128;2023-08-06T13:54:43;2.03;;;1.93;;
6376;SDS011;3221;48.858;10.128;2023-08-06T13:57:10;3.13;;;1.73;;
6376;SDS011;3221;48.858;10.128;2023-08-06T13:59:37;4.30;;;2.27;;
6376;SDS011;3221;48.858;10.128;2023-08-06T14:02:04;3.33;;;2.23;;
6376;SDS011;3221;48.858;10.128;2023-08-06T14:04:32;2.93;;;2.10;;
6376;SDS011;3221;48.858;10.128;2023-08-06T14:06:59;2.60;;;2.10;;
6376;SDS011;3221;48.858;10.128;2023-08-06T14:09:26;2.07;;;1.87;;
6376;SDS011;3221;48.858;10.128;2023-08-06T14:11:53;2.70;;;1.90;;
6376;SDS011;3221;48.858;10.128;2023-08-06T14:14:20;1.93;;;1.70;;
6376;SDS011;3221;48.858;10.128;2023-08-06T14:16:52;2.60;;;1.70;;
6376;SDS011;3221;48.858;10.128;2023-08-06T14:19:21;2.13;;;1.90;;
6376;SDS011;3221;48.858;10.128;2023-08-06T14:21:49;2.00;;;1.77;;
6376;SDS011;3221;48.858;10.128;2023-08-06T14:24:17;2.30;;;2.10;;
6376;SDS011;3221;48.858;10.128;2023-08-06T14:26:45;2.53;;;2.17;;
6376;SDS011;3221;48.858;10.128;2023-08-06T14:29:12;3.87;;;2.13;;
6376;SDS011;3221;48.858;10.128;2023-08-06T14:31:40;3.03;;;2.20;;
6376;SDS011;3221;48.858;10.128;2023-08-06T14:34:07;2.73;;;2.10;;
6376;SDS011;3221;48.858;10.128;2023-08-06T14:36:34;1.97;;;1.80;;
6376;SDS011;3221;48.858;10.128;2023-08-06T14:39:01;4.93;;;2.33;;
6376;SDS011;3221;48.858;10.128;2023-08-06T14:41:28;3.20;;;2.40;;
6376;SDS011;3221;48.858;10.128;2023-08-06T14:43:55;2.47;;;2.10;;
6376;SDS011;3221;48.858;10.128;2023-08-06T14:46:22;2.57;;;2.30;;
6376;SDS011;3221;48.858;10.128;2023-08-06T14:48:49;2.50;;;2.30;;
6376;SDS011;3221;48.858;10.128;2023-08-06T14:51:16;3.47;;;2.50;;
6376;SDS011;3221;48.858;10.128;2023-08-06T14:53:46;2.90;;;2.50;;
6376;SDS011;3221;48.858;10.128;2023-08-06T14:56:13;2.27;;;1.90;;
6376;SDS011;3221;48.858;10.128;2023-08-06T14:58:40;2.63;;;1.80;;
6376;SDS011;3221;48.858;10.128;2023-08-06T15:01:08;2.07;;;1.87;;
6376;SDS011;3221;48.858;10.128;2023-08-06T15:03:35;2.20;;;2.00;;
6376;SDS011;3221;48.858;10.128;2023-08-06T15:06:02;2.47;;;1.90;;
6376;SDS011;3221;48.858;10.128;2023-08-06T15:08:29;1.83;;;1.73;;
6376;SDS011;3221;48.858;10.128;2023-08-06T15:10:56;1.93;;;1.40;;
6376;SDS011;3221;48.858;10.128;2023-08-06T15:13:23;1.70;;;1.60;;
6376;SDS011;3221;48.858;10.128;2023-08-06T15:15:50;2.77;;;1.53;;
6376;SDS011;3221;48.858;10.128;2023-08-06T15:18:16;2.03;;;1.50;;
6376;SDS011;3221;48.858;10.128;2023-08-06T15:20:43;3.90;;;1.57;;
6376;SDS011;3221;48.858;10.128;2023-08-06T15:23:10;2.23;;;1.27;;